createdAt,value
2023-04-15T00:00:13.240Z,86.32
2023-04-15T00:03:22.134Z,86.32
2023-04-15T00:06:31.896Z,85.65
2023-04-15T00:09:42.798Z,85.94
2023-04-15T00:12:50.984Z,86.09
2023-04-15T00:15:59.273Z,86.27
2023-04-15T00:19:07.454Z,85.53
2023-04-15T00:22:17.469Z,85.62
2023-04-15T00:25:25.816Z,85.44
2023-04-15T00:28:34.036Z,85.68
2023-04-15T00:31:42.746Z,86.54
2023-04-15T00:34:52.473Z,86.28
2023-04-15T00:38:02.262Z,86.52
2023-04-15T00:41:12.320Z,86.50
2023-04-15T00:44:21.161Z,85.92
2023-04-15T00:47:32.368Z,85.63
2023-04-15T00:50:40.574Z,86.07
2023-04-15T00:53:51.886Z,86.70
2023-04-15T00:57:00.823Z,86.02
2023-04-15T01:00:11.622Z,86.46
2023-04-15T01:03:20.799Z,86.71
2023-04-15T01:06:29.246Z,86.79
2023-04-15T01:09:39.167Z,86.26
2023-04-15T01:12:47.542Z,86.30
2023-04-15T01:15:58.385Z,86.60
2023-04-15T01:19:07.567Z,85.71
2023-04-15T01:22:16.202Z,85.46
2023-04-15T01:25:33.267Z,85.56
2023-04-15T01:28:41.631Z,85.90
2023-04-15T01:31:57.602Z,85.81
2023-04-15T01:35:08.893Z,85.71
2023-04-15T01:38:17.229Z,85.67
2023-04-15T01:41:29.319Z,85.03
2023-04-15T01:44:37.441Z,85.18
2023-04-15T01:47:45.701Z,86.33
2023-04-15T01:50:55.263Z,85.59
2023-04-15T01:54:04.747Z,85.04
2023-04-15T01:57:14.476Z,85.79
2023-04-15T02:00:23.372Z,85.92
2023-04-15T02:03:33.956Z,85.37
2023-04-15T02:06:42.225Z,85.66
2023-04-15T02:09:50.402Z,84.95
2023-04-15T02:12:59.980Z,84.39
2023-04-15T02:16:18.797Z,85.31
2023-04-15T02:19:27.096Z,85.16
2023-04-15T02:22:35.819Z,85.30
2023-04-15T02:25:53.949Z,85.16
2023-04-15T02:29:04.082Z,84.53
2023-04-15T02:32:13.149Z,84.90
2023-04-15T02:35:21.623Z,85.29
2023-04-15T02:38:31.003Z,85.46
2023-04-15T02:41:39.344Z,85.45
2023-04-15T02:44:48.928Z,86.20
2023-04-15T02:47:57.545Z,85.93
2023-04-15T02:51:15.510Z,85.69
2023-04-15T02:54:24.975Z,85.33
2023-04-15T02:57:33.373Z,86.07
2023-04-15T03:00:50.901Z,86.31
2023-04-15T03:03:59.148Z,84.83
2023-04-15T03:07:07.284Z,85.14
2023-04-15T03:10:15.566Z,85.33
2023-04-15T03:13:24.571Z,84.84
2023-04-15T03:16:34.089Z,85.28
2023-04-15T03:19:42.295Z,85.09
2023-04-15T03:22:50.933Z,84.80
2023-04-15T03:26:04.065Z,83.89
2023-04-15T03:29:14.036Z,83.93
2023-04-15T03:32:23.704Z,84.56
2023-04-15T03:35:31.843Z,84.28
2023-04-15T03:38:40.008Z,83.09
2023-04-15T03:41:48.214Z,83.08
2023-04-15T03:44:57.920Z,83.01
2023-04-15T03:48:17.341Z,83.59
2023-04-15T03:51:26.661Z,84.43
2023-04-15T03:54:34.848Z,83.32
2023-04-15T03:57:43.086Z,82.87
2023-04-15T04:00:51.290Z,83.51
2023-04-15T04:04:01.079Z,83.73
2023-04-15T04:07:09.350Z,84.32
2023-04-15T04:10:17.882Z,83.20
2023-04-15T04:13:26.062Z,84.49
2023-04-15T04:16:34.211Z,84.14
2023-04-15T04:19:43.707Z,84.24
2023-04-15T04:22:51.953Z,83.98
2023-04-15T04:26:00.093Z,83.15
2023-04-15T04:29:08.226Z,83.27
2023-04-15T04:32:16.452Z,82.89
2023-04-15T04:35:26.467Z,83.42
2023-04-15T04:38:34.628Z,84.25
2023-04-15T04:41:42.662Z,83.66
2023-04-15T04:44:50.724Z,83.61
2023-04-15T04:47:58.811Z,82.51
2023-04-15T04:51:09.421Z,83.58
2023-04-15T04:54:17.629Z,83.34
2023-04-15T04:57:25.917Z,83.72
2023-04-15T05:00:34.110Z,83.16
2023-04-15T05:03:42.890Z,82.86
2023-04-15T05:06:52.488Z,82.33
2023-04-15T05:10:00.606Z,82.12
2023-04-15T05:13:08.749Z,81.59
2023-04-15T05:16:17.010Z,82.57
2023-04-15T05:19:25.451Z,81.92
2023-04-15T05:22:35.601Z,83.08
2023-04-15T05:25:43.681Z,82.50
2023-04-15T05:28:51.913Z,82.28
2023-04-15T05:32:00.199Z,81.94
2023-04-15T05:35:09.047Z,81.58
2023-04-15T05:38:18.553Z,81.58
2023-04-15T05:41:26.666Z,80.97
2023-04-15T05:44:34.852Z,80.72
2023-04-15T05:47:43.164Z,80.95
2023-04-15T05:50:51.411Z,80.83
2023-04-15T05:54:01.307Z,79.78
2023-04-15T05:57:09.440Z,80.24
2023-04-15T06:00:18.030Z,79.33
2023-04-15T06:03:26.438Z,78.59
2023-04-15T06:06:34.743Z,78.99
2023-04-15T06:09:44.828Z,79.59
2023-04-15T06:12:54.574Z,77.96
2023-04-15T06:16:02.886Z,77.61
2023-04-15T06:19:12.400Z,77.50
2023-04-15T06:22:20.757Z,76.86
2023-04-15T06:25:30.200Z,77.58
2023-04-15T06:28:38.262Z,77.63
2023-04-15T06:31:48.529Z,76.71
2023-04-15T06:34:56.763Z,76.14
2023-04-15T06:38:04.860Z,75.79
2023-04-15T06:41:14.430Z,76.40
2023-04-15T06:44:22.527Z,75.47
2023-04-15T06:47:30.819Z,74.63
2023-04-15T06:50:39.072Z,74.17
2023-04-15T06:53:47.136Z,73.97
2023-04-15T06:56:56.817Z,72.78
2023-04-15T07:00:07.501Z,72.66
2023-04-15T07:03:16.066Z,71.34
2023-04-15T07:06:24.742Z,70.07
2023-04-15T07:09:34.212Z,69.65
2023-04-15T07:12:43.624Z,68.83
2023-04-15T07:15:51.658Z,68.98
2023-04-15T07:19:00.005Z,68.50
2023-04-15T07:22:08.421Z,68.67
2023-04-15T07:25:17.706Z,68.25
2023-04-15T07:28:29.140Z,67.23
2023-04-15T07:31:37.772Z,67.29
2023-04-15T07:34:46.390Z,66.92
2023-04-15T07:37:54.582Z,65.60
2023-04-15T07:41:02.724Z,65.79
2023-04-15T07:44:12.883Z,65.86
2023-04-15T07:47:21.054Z,64.68
2023-04-15T07:50:29.861Z,65.63
2023-04-15T07:53:38.116Z,64.03
2023-04-15T07:56:46.212Z,64.75
2023-04-15T07:59:56.265Z,64.72
2023-04-15T08:03:04.938Z,63.42
2023-04-15T08:06:13.216Z,65.34
2023-04-15T08:09:21.664Z,64.72
2023-04-15T08:12:31.781Z,64.53
2023-04-15T08:15:41.245Z,63.27
2023-04-15T08:18:51.448Z,64.40
2023-04-15T08:22:00.569Z,63.51
2023-04-15T08:25:10.286Z,62.57
2023-04-15T08:28:18.349Z,61.85
2023-04-15T08:31:30.953Z,60.02
2023-04-15T08:34:39.472Z,60.34
2023-04-15T08:37:47.640Z,56.99
2023-04-15T08:40:59.292Z,57.86
2023-04-15T08:44:08.538Z,55.72
2023-04-15T08:47:22.787Z,58.92
2023-04-15T08:50:33.833Z,57.13
2023-04-15T08:53:42.068Z,59.79
2023-04-15T08:56:50.989Z,60.67
2023-04-15T08:59:59.645Z,60.65
2023-04-15T09:03:11.180Z,61.07
2023-04-15T09:06:19.993Z,59.71
2023-04-15T09:09:29.142Z,60.23
2023-04-15T09:12:38.357Z,58.67
2023-04-15T09:15:47.189Z,57.09
2023-04-15T09:18:56.820Z,57.22
2023-04-15T09:22:05.389Z,57.06
2023-04-15T09:25:33.518Z,55.51
2023-04-15T09:28:44.218Z,56.53
2023-04-15T09:31:52.665Z,55.16
2023-04-15T09:35:13.496Z,56.25
2023-04-15T09:38:21.627Z,54.81
2023-04-15T09:41:29.863Z,54.21
2023-04-15T09:44:40.086Z,53.30
2023-04-15T09:47:48.216Z,54.69
2023-04-15T09:51:02.998Z,53.46
2023-04-15T09:54:11.556Z,52.01
2023-04-15T09:57:19.761Z,53.22
2023-04-15T10:00:28.047Z,53.23
2023-04-15T10:03:37.581Z,53.86
2023-04-15T10:06:47.402Z,57.57
2023-04-15T10:09:56.796Z,57.31
2023-04-15T10:13:07.600Z,57.59
2023-04-15T10:16:18.003Z,58.08
2023-04-15T10:19:34.257Z,56.85
2023-04-15T10:22:48.700Z,57.53
2023-04-15T10:25:58.853Z,57.44
2023-04-15T10:29:08.103Z,56.52
2023-04-15T10:32:17.585Z,58.49
2023-04-15T10:35:26.961Z,56.45
2023-04-15T10:38:41.803Z,56.63
2023-04-15T10:42:08.692Z,58.32
2023-04-15T10:45:19.954Z,57.57
2023-04-15T10:48:28.180Z,57.75
2023-04-15T10:51:42.959Z,55.68
2023-04-15T10:55:05.394Z,54.81
2023-04-15T10:58:15.079Z,55.00
2023-04-15T11:01:24.238Z,54.66
2023-04-15T11:05:01.816Z,55.83
2023-04-15T11:08:11.041Z,59.18
2023-04-15T11:11:22.147Z,58.46
2023-04-15T11:14:30.298Z,56.68
2023-04-15T11:17:38.727Z,57.27
2023-04-15T11:20:50.540Z,57.03
2023-04-15T11:23:58.897Z,56.17
2023-04-15T11:27:08.410Z,58.63
2023-04-15T11:30:22.664Z,57.10
2023-04-15T11:33:31.105Z,57.38
2023-04-15T11:36:40.215Z,57.52
2023-04-15T11:39:50.433Z,57.31
2023-04-15T11:43:11.961Z,54.08
2023-04-15T11:46:22.997Z,54.47
2023-04-15T11:49:34.041Z,54.59
2023-04-15T11:52:55.348Z,55.50
2023-04-15T11:56:03.843Z,58.50
2023-04-15T11:59:13.815Z,57.20
2023-04-15T12:02:31.919Z,58.03
2023-04-15T12:06:10.485Z,59.11
2023-04-15T12:09:20.288Z,60.23
2023-04-15T12:12:31.076Z,58.68
2023-04-15T12:15:41.937Z,60.21
2023-04-15T12:18:53.750Z,60.17
2023-04-15T12:22:05.479Z,61.89
2023-04-15T12:25:15.068Z,62.55
2023-04-15T12:28:23.528Z,62.51
2023-04-15T12:31:33.375Z,59.71
2023-04-15T12:34:46.169Z,61.27
2023-04-15T12:37:54.389Z,59.91
2023-04-15T12:41:02.781Z,60.51
2023-04-15T12:44:12.318Z,61.75
2023-04-15T12:47:22.187Z,61.00
2023-04-15T12:50:30.752Z,62.36
2023-04-15T12:53:39.186Z,60.23
2023-04-15T12:56:49.066Z,60.20
2023-04-15T12:59:57.478Z,60.89
2023-04-15T13:03:07.486Z,60.37
2023-04-15T13:06:16.051Z,61.93
2023-04-15T13:09:24.359Z,60.28
2023-04-15T13:12:33.016Z,59.18
2023-04-15T13:15:41.260Z,58.18
2023-04-15T13:18:51.361Z,59.18
2023-04-15T13:21:59.856Z,59.55
2023-04-15T13:25:09.728Z,58.43
2023-04-15T13:28:18.187Z,58.45
2023-04-15T13:31:27.266Z,59.67
2023-04-15T13:34:37.116Z,59.12
2023-04-15T13:37:45.331Z,57.21
2023-04-15T13:40:53.634Z,58.71
2023-04-15T13:44:02.291Z,59.56
2023-04-15T13:47:11.068Z,60.20
2023-04-15T13:50:21.034Z,59.81
2023-04-15T13:53:37.840Z,60.45
2023-04-15T13:56:47.666Z,62.30
2023-04-15T13:59:55.967Z,57.67
2023-04-15T14:03:04.347Z,56.29
2023-04-15T14:06:13.916Z,57.66
2023-04-15T14:09:26.218Z,56.70
2023-04-15T14:12:35.018Z,58.41
2023-04-15T14:15:43.404Z,59.43
2023-04-15T14:18:51.746Z,58.58
2023-04-15T14:22:01.857Z,59.91
2023-04-15T14:25:17.278Z,60.43
2023-04-15T14:28:32.189Z,59.74
2023-04-15T14:31:41.208Z,59.86
2023-04-15T14:34:51.102Z,60.75
2023-04-15T14:38:00.627Z,59.14
2023-04-15T14:41:10.506Z,60.39
2023-04-15T14:44:19.634Z,57.91
2023-04-15T14:47:27.947Z,58.42
2023-04-15T14:50:36.388Z,60.50
2023-04-15T14:53:46.372Z,59.49
2023-04-15T14:56:54.780Z,60.04
2023-04-15T15:00:03.641Z,56.17
2023-04-15T15:03:15.815Z,57.72
2023-04-15T15:06:25.148Z,57.83
2023-04-15T15:09:35.133Z,57.05
2023-04-15T15:12:43.477Z,56.80
2023-04-15T15:15:52.042Z,55.99
2023-04-15T15:19:00.502Z,58.62
2023-04-15T15:22:08.846Z,58.19
2023-04-15T15:25:19.304Z,57.73
2023-04-15T15:28:28.369Z,57.93
2023-04-15T15:31:37.176Z,59.75
2023-04-15T15:34:49.153Z,60.35
2023-04-15T15:37:57.721Z,61.18
2023-04-15T15:41:07.444Z,62.44
2023-04-15T15:44:16.100Z,65.08
2023-04-15T15:47:26.550Z,67.36
2023-04-15T15:50:35.634Z,67.18
2023-04-15T15:53:44.867Z,68.61
2023-04-15T15:56:54.660Z,70.19
2023-04-15T16:03:14.626Z,71.85
2023-04-15T16:06:22.823Z,71.69
2023-04-15T16:09:31.373Z,71.16
2023-04-15T16:12:41.873Z,72.06
2023-04-15T16:15:51.130Z,72.05
2023-04-15T16:18:59.496Z,73.21
2023-04-15T16:22:07.664Z,71.96
2023-04-15T16:25:16.380Z,72.34
2023-04-15T16:28:27.323Z,72.07
2023-04-15T16:31:37.348Z,71.95
2023-04-15T16:34:45.529Z,72.73
2023-04-15T16:37:53.817Z,72.63
2023-04-15T16:41:03.289Z,73.51
2023-04-15T16:44:12.795Z,72.32
2023-04-15T16:47:20.953Z,73.32
2023-04-15T16:50:29.287Z,72.97
2023-04-15T16:53:37.389Z,73.82
2023-04-15T16:56:45.446Z,72.80
2023-04-15T16:59:54.995Z,73.91
2023-04-15T17:03:04.080Z,73.60
2023-04-15T17:06:12.349Z,73.19
2023-04-15T17:09:20.453Z,73.85
2023-04-15T17:12:28.838Z,75.35
2023-04-15T17:15:38.361Z,74.94
2023-04-15T17:18:47.370Z,74.60
2023-04-15T17:21:55.492Z,74.85
2023-04-15T17:25:04.613Z,75.79
2023-04-15T17:28:13.025Z,75.74
2023-04-15T17:31:22.686Z,75.79
2023-04-15T17:34:50.681Z,75.81
2023-04-15T17:37:59.468Z,76.24
2023-04-15T17:41:08.424Z,76.92
2023-04-15T17:44:16.655Z,76.83
2023-04-15T17:47:26.709Z,77.73
2023-04-15T17:50:35.636Z,78.12
2023-04-15T17:53:43.706Z,78.29
2023-04-15T17:56:52.508Z,79.06
2023-04-15T18:00:00.792Z,78.80
2023-04-15T18:03:11.694Z,79.18
2023-04-15T18:06:21.554Z,80.21
2023-04-15T18:09:29.751Z,80.13
2023-04-15T18:12:38.286Z,79.90
2023-04-15T18:15:47.597Z,79.97
2023-04-15T18:18:57.425Z,81.39
2023-04-15T18:22:05.564Z,80.60
2023-04-15T18:25:13.923Z,80.84
2023-04-15T18:28:23.004Z,80.44
2023-04-15T18:31:31.756Z,81.24
2023-04-15T18:34:42.800Z,81.41
2023-04-15T18:37:51.159Z,81.59
2023-04-15T18:40:59.945Z,81.79
2023-04-15T18:44:08.148Z,82.05
2023-04-15T18:47:17.083Z,81.52
2023-04-15T18:50:26.943Z,81.31
2023-04-15T18:53:35.766Z,81.54
2023-04-15T18:56:44.085Z,81.60
2023-04-15T18:59:52.848Z,81.08
2023-04-15T19:03:01.260Z,81.38
2023-04-15T19:06:11.363Z,81.63
2023-04-15T19:09:19.538Z,82.17
2023-04-15T19:12:28.097Z,81.53
2023-04-15T19:15:36.213Z,80.63
2023-04-15T19:18:44.435Z,80.96
2023-04-15T19:21:54.485Z,82.04
2023-04-15T19:25:02.746Z,81.45
2023-04-15T19:28:11.382Z,81.33
2023-04-15T19:31:20.202Z,81.27
2023-04-15T19:34:28.378Z,82.04
2023-04-15T19:37:38.945Z,82.20
2023-04-15T19:40:47.139Z,82.42
2023-04-15T19:43:55.644Z,82.50
2023-04-15T19:47:04.022Z,82.99
2023-04-15T19:50:12.931Z,82.81
2023-04-15T19:53:22.396Z,82.30
2023-04-15T19:56:31.744Z,82.62
2023-04-15T19:59:42.229Z,82.35
2023-04-15T20:02:50.697Z,82.40
2023-04-15T20:05:58.984Z,81.88
2023-04-15T20:09:11.087Z,81.53
2023-04-15T20:12:50.412Z,82.58
2023-04-15T20:15:49.957Z,82.85
2023-04-15T20:18:59.531Z,82.40
2023-04-15T20:22:08.083Z,82.26
2023-04-15T20:25:17.568Z,82.33
2023-04-15T20:28:27.495Z,82.58
2023-04-15T20:31:36.209Z,82.90
2023-04-15T20:34:44.850Z,82.43
2023-04-15T20:37:53.225Z,81.79
2023-04-15T20:41:02.872Z,82.73
2023-04-15T20:44:11.007Z,82.63
2023-04-15T20:47:19.793Z,82.73
2023-04-15T20:50:28.849Z,82.78
2023-04-15T20:53:37.007Z,82.84
2023-04-15T20:56:46.902Z,82.81
2023-04-15T20:59:55.064Z,83.12
2023-04-15T21:03:03.764Z,83.84
2023-04-15T21:06:12.510Z,83.84
2023-04-15T21:09:20.958Z,83.89
2023-04-15T21:12:30.476Z,83.22
2023-04-15T21:15:38.762Z,83.97
2023-04-15T21:18:47.102Z,84.31
2023-04-15T21:21:55.223Z,84.32
2023-04-15T21:25:03.684Z,84.41
2023-04-15T21:28:13.385Z,85.23
2023-04-15T21:31:22.355Z,84.81
2023-04-15T21:34:30.630Z,85.30
2023-04-15T21:37:38.921Z,84.12
2023-04-15T21:40:47.743Z,84.72
2023-04-15T21:43:58.023Z,84.59
2023-04-15T21:47:06.148Z,84.91
2023-04-15T21:50:15.595Z,85.32
2023-04-15T21:53:24.331Z,85.73
2023-04-15T21:56:33.842Z,85.21
2023-04-15T21:59:43.562Z,84.66
2023-04-15T22:02:52.146Z,84.91
2023-04-15T22:06:00.477Z,84.90
2023-04-15T22:09:08.583Z,84.79
2023-04-15T22:12:16.778Z,85.37
2023-04-15T22:15:26.265Z,85.08
2023-04-15T22:18:34.318Z,85.52
2023-04-15T22:21:42.935Z,84.64
2023-04-15T22:24:50.991Z,84.72
2023-04-15T22:27:59.054Z,84.97
2023-04-15T22:31:09.275Z,85.67
2023-04-15T22:34:21.215Z,85.23
2023-04-15T22:37:30.490Z,84.76
2023-04-15T22:40:38.845Z,85.27
2023-04-15T22:43:47.588Z,84.51
2023-04-15T22:46:57.488Z,85.24
2023-04-15T22:50:08.073Z,85.85
2023-04-15T22:53:18.234Z,85.38
2023-04-15T22:56:26.836Z,85.53
2023-04-15T22:59:35.343Z,85.50
2023-04-15T23:02:45.711Z,85.38
2023-04-15T23:05:53.940Z,85.23
2023-04-15T23:09:02.056Z,86.53
2023-04-15T23:12:10.405Z,85.51
2023-04-15T23:15:18.468Z,85.79
2023-04-15T23:18:28.417Z,85.88
2023-04-15T23:21:36.530Z,86.15
2023-04-15T23:24:44.582Z,85.29
2023-04-15T23:27:52.828Z,85.80
2023-04-15T23:31:01.159Z,85.35
2023-04-15T23:34:10.867Z,85.77
2023-04-15T23:37:19.740Z,85.06
2023-04-15T23:40:27.956Z,85.91
2023-04-15T23:43:36.677Z,86.10
2023-04-15T23:46:44.816Z,86.45
2023-04-15T23:49:54.377Z,86.10
2023-04-15T23:53:02.501Z,85.83
2023-04-15T23:56:11.114Z,84.50
2023-04-15T23:59:19.477Z,85.24
